Time;durP1;ratioP1;P1;durP2;ratioP2;P2;SDS_P1;SDS_P2;PMS_P1;PMS_P2;Temp;Humidity;BMP_temperature;BMP_pressure;BME280_temperature;BME280_humidity;BME280_pressure;Samples;Min_cycle;Max_cycle;Signal;HPM_P1;HPM_P2
2022/05/12 00:02:08;;;;;;;0.30;0.30;;;;;;;29.26;31.83;96466.09;5082568;28;20028;-32
2022/05/12 00:04:33;;;;;;;0.20;0.20;;;;;;;29.26;31.92;96465.25;5082907;28;20451;-32
2022/05/12 00:06:59;;;;;;;0.15;0.15;;;;;;;29.25;31.69;96464.38;5083116;28;20047;-33
2022/05/12 00:09:25;;;;;;;0.43;0.20;;;;;;;29.20;31.85;96466.53;5081602;28;20489;-30
2022/05/12 00:11:50;;;;;;;0.13;0.13;;;;;;;29.26;31.73;96481.06;5082206;28;20020;-31
2022/05/12 00:14:16;;;;;;;0.10;0.10;;;;;;;29.24;31.78;96470.63;5085371;28;20035;-35
2022/05/12 00:16:41;;;;;;;0.25;0.20;;;;;;;29.25;31.79;96479.41;5083143;28;20689;-30
2022/05/12 00:19:06;;;;;;;0.20;0.20;;;;;;;29.25;31.71;96474.13;5082931;28;20460;-31
2022/05/12 00:21:32;;;;;;;0.20;0.20;;;;;;;29.26;31.62;96478.44;5080628;28;20024;-32
2022/05/12 00:23:58;;;;;;;0.20;0.20;;;;;;;29.24;31.76;96477.69;5079241;28;20146;-33
2022/05/12 00:26:27;;;;;;;0.45;0.20;;;;;;;29.25;31.65;96477.59;5083742;28;20031;-33
2022/05/12 00:28:52;;;;;;;0.20;0.20;;;;;;;29.25;31.64;96476.75;5083260;28;20040;-30
2022/05/12 00:31:18;;;;;;;0.10;0.10;;;;;;;29.25;31.61;96484.69;5085615;28;20024;-32
2022/05/12 00:33:43;;;;;;;0.20;0.20;;;;;;;29.24;31.69;96482.97;5083113;28;20335;-32
2022/05/12 00:36:09;;;;;;;0.32;0.25;;;;;;;29.25;31.98;96484.69;5083548;28;20024;-32
2022/05/12 00:38:34;;;;;;;0.32;0.20;;;;;;;29.25;31.79;96485.50;5082970;28;20034;-32
2022/05/12 00:40:59;;;;;;;0.30;0.20;;;;;;;29.26;31.77;96483.72;5084308;28;20028;-34
2022/05/12 00:43:41;;;;;;;0.30;0.10;;;;;;;29.26;31.77;96486.34;5082125;28;20457;-32
2022/05/12 00:46:12;;;;;;;0.20;0.20;;;;;;;29.25;31.61;96492.59;5082955;28;20054;-32
2022/05/12 00:48:38;;;;;;;0.35;0.22;;;;;;;29.25;31.68;96484.69;5083811;28;20032;-32
2022/05/12 00:51:04;;;;;;;0.28;0.28;;;;;;;29.25;31.66;96487.31;5080375;28;20413;-31
2022/05/12 00:53:32;;;;;;;0.20;0.20;;;;;;;29.24;31.88;96485.59;5082504;28;20028;-31
2022/05/12 00:55:57;;;;;;;0.20;0.20;;;;;;;29.23;31.72;96491.84;5080623;28;20126;-30
2022/05/12 00:58:23;;;;;;;0.20;0.20;;;;;;;29.24;31.92;96493.53;5080180;28;20048;-31
2022/05/12 01:00:48;;;;;;;0.20;0.20;;;;;;;29.24;31.80;96494.38;5082395;28;20078;-30
2022/05/12 01:03:16;;;;;;;0.20;0.20;;;;;;;29.24;32.02;96493.53;5085744;28;20169;-32
2022/05/12 01:05:42;;;;;;;0.20;0.20;;;;;;;29.24;32.01;96493.53;5062524;28;20099;-31
2022/05/12 01:08:11;;;;;;;0.20;0.20;;;;;;;29.24;31.92;96498.78;5080184;28;20020;-32
2022/05/12 01:10:39;;;;;;;0.10;0.10;;;;;;;29.24;31.58;96496.16;5069453;28;20039;-31
2022/05/12 01:13:04;;;;;;;0.20;0.20;;;;;;;29.24;31.77;96496.16;5083048;28;20113;-32
2022/05/12 01:15:29;;;;;;;0.10;0.10;;;;;;;29.24;31.76;96496.16;5084201;28;20028;-31
2022/05/12 01:18:03;;;;;;;0.10;0.10;;;;;;;29.23;31.97;96502.41;5080120;28;20070;-31
2022/05/12 01:20:29;;;;;;;0.25;0.25;;;;;;;29.23;31.71;96502.41;5081503;28;20034;-32
2022/05/12 01:22:58;;;;;;;0.20;0.20;;;;;;;29.21;31.94;96505.16;5082280;28;20039;-31
2022/05/12 01:25:26;;;;;;;0.20;0.20;;;;;;;29.22;31.68;96506.84;5079172;28;20024;-32
2022/05/12 01:27:51;;;;;;;0.45;0.17;;;;;;;29.21;31.66;96508.63;5081634;28;20028;-31
2022/05/12 01:30:18;;;;;;;0.20;0.20;;;;;;;29.21;31.57;96511.28;5082842;28;20038;-31
2022/05/12 01:32:44;;;;;;;0.20;0.20;;;;;;;29.22;31.60;96509.50;5082784;28;20019;-30
2022/05/12 01:35:09;;;;;;;0.20;0.20;;;;;;;29.21;31.65;96510.41;5082021;28;20032;-31
2022/05/12 01:37:40;;;;;;;0.20;0.20;;;;;;;29.21;31.59;96524.47;5079792;28;20059;-32
2022/05/12 01:40:06;;;;;;;0.28;0.28;;;;;;;29.21;31.93;96519.19;5081571;28;20745;-31
2022/05/12 01:42:31;;;;;;;0.22;0.22;;;;;;;29.21;31.71;96520.97;5083285;28;20043;-31
2022/05/12 01:44:56;;;;;;;0.30;0.30;;;;;;;29.23;31.68;96528.78;5083228;28;20032;-30
2022/05/12 01:47:22;;;;;;;0.10;0.10;;;;;;;29.21;31.62;96531.53;5082727;28;20035;-29
2022/05/12 01:49:48;;;;;;;0.30;0.28;;;;;;;29.22;31.58;96538.53;5081706;28;20417;-31
2022/05/12 01:52:13;;;;;;;0.22;0.22;;;;;;;29.20;31.74;96546.53;5081331;28;20039;-32
2022/05/12 01:54:38;;;;;;;0.20;0.20;;;;;;;29.20;31.56;96551.81;5082446;28;20032;-31
2022/05/12 01:57:04;;;;;;;0.30;0.30;;;;;;;29.20;31.69;96546.53;5081564;28;20028;-29
2022/05/12 01:59:29;;;;;;;0.22;0.22;;;;;;;29.20;31.61;96550.97;5081932;28;20028;-30
2022/05/12 02:01:55;;;;;;;0.10;0.10;;;;;;;29.19;31.71;96555.41;5080661;28;20036;-30
2022/05/12 02:04:20;;;;;;;0.45;0.32;;;;;;;29.20;31.71;96565.00;5082086;28;20027;-31
2022/05/12 02:06:46;;;;;;;0.50;0.20;;;;;;;29.20;31.67;96569.44;5085168;28;20026;-31
2022/05/12 02:09:11;;;;;;;0.20;0.20;;;;;;;29.19;31.72;96560.69;5083703;28;20015;-32
2022/05/12 02:11:37;;;;;;;0.32;0.30;;;;;;;29.17;31.78;96567.84;5084279;28;20756;-32
2022/05/12 02:14:04;;;;;;;0.30;0.30;;;;;;;29.20;31.78;96572.06;5083886;28;20062;-29
2022/05/12 02:16:30;;;;;;;0.30;0.30;;;;;;;29.19;31.85;96568.59;5084890;28;20568;-33
2022/05/12 02:18:55;;;;;;;0.20;0.20;;;;;;;29.19;31.67;96576.53;5085580;28;20038;-30
2022/05/12 02:21:21;;;;;;;0.10;0.10;;;;;;;29.19;31.62;96579.16;5086390;28;20325;-30
2022/05/12 02:23:46;;;;;;;0.40;0.30;;;;;;;29.18;31.81;96582.72;5086543;28;20112;-32
2022/05/12 02:26:12;;;;;;;0.30;0.20;;;;;;;29.18;31.55;96584.53;5083269;28;20031;-33
2022/05/12 02:28:37;;;;;;;0.10;0.10;;;;;;;29.18;31.51;96585.38;5085897;28;20074;-30
2022/05/12 02:31:03;;;;;;;0.47;0.20;;;;;;;29.19;31.65;96586.22;5082769;28;20063;-31
2022/05/12 02:33:28;;;;;;;0.20;0.20;;;;;;;29.18;31.57;96595.94;5084952;28;20043;-30
2022/05/12 02:35:54;;;;;;;0.30;0.30;;;;;;;29.18;31.70;96600.38;5086357;28;20035;-31
2022/05/12 02:38:19;;;;;;;0.30;0.30;;;;;;;29.18;31.87;96606.47;5085410;28;20089;-32
2022/05/12 02:40:45;;;;;;;0.20;0.20;;;;;;;29.17;31.66;96610.06;5085341;28;20505;-32
2022/05/12 02:43:25;;;;;;;0.52;0.30;;;;;;;29.18;31.79;96606.47;5082016;28;20020;-32
2022/05/12 02:45:56;;;;;;;0.30;0.30;;;;;;;29.17;31.83;96602.16;5084792;28;20545;-31
2022/05/12 02:48:24;;;;;;;0.22;0.20;;;;;;;29.17;31.53;96610.06;5082633;28;20024;-30
2022/05/12 02:50:49;;;;;;;0.20;0.20;;;;;;;29.16;31.49;96600.47;5081565;28;20023;-31
2022/05/12 02:53:15;;;;;;;0.40;0.40;;;;;;;29.17;31.57;96614.50;5085621;28;20093;-40
2022/05/12 02:55:40;;;;;;;0.20;0.20;;;;;;;29.16;31.52;96618.09;5085025;28;20032;-31
2022/05/12 02:58:06;;;;;;;0.30;0.20;;;;;;;29.15;31.48;96617.28;5084272;28;20070;-30
2022/05/12 03:00:31;;;;;;;0.20;0.20;;;;;;;29.16;31.52;96624.22;5085466;28;20020;-34
2022/05/12 03:02:57;;;;;;;0.32;0.20;;;;;;;29.16;31.63;96626.88;5084928;28;20396;-30
2022/05/12 03:05:22;;;;;;;0.20;0.20;;;;;;;29.15;31.54;96633.09;5083601;28;20030;-29
2022/05/12 03:07:47;;;;;;;0.20;0.20;;;;;;;29.16;31.79;96632.16;5086919;28;20039;-30
2022/05/12 03:10:13;;;;;;;0.25;0.25;;;;;;;29.16;31.61;96642.69;5082124;28;20030;-35
2022/05/12 03:12:38;;;;;;;0.20;0.20;;;;;;;29.15;31.64;96634.88;5085115;28;20529;-30
2022/05/12 03:15:05;;;;;;;0.20;0.20;;;;;;;29.15;31.62;96643.66;5083917;28;20024;-31
2022/05/12 03:17:30;;;;;;;0.55;0.40;;;;;;;29.15;31.61;96648.94;5079956;28;20024;-31
2022/05/12 03:19:55;;;;;;;0.30;0.30;;;;;;;29.15;31.63;96646.28;5085871;28;20038;-30
2022/05/12 03:22:21;;;;;;;0.22;0.20;;;;;;;29.15;31.41;96641.03;5084860;28;20911;-31
2022/05/12 03:24:46;;;;;;;0.25;0.25;;;;;;;29.14;31.72;96652.50;5081155;28;20084;-30
2022/05/12 03:27:13;;;;;;;0.20;0.20;;;;;;;29.14;31.51;96657.78;5085677;28;20031;-30
2022/05/12 03:29:38;;;;;;;0.82;0.40;;;;;;;29.15;31.59;96664.75;5083557;28;20039;-30
2022/05/12 03:32:05;;;;;;;0.30;0.30;;;;;;;29.13;31.73;96661.38;5082615;28;20030;-30
2022/05/12 03:34:30;;;;;;;0.40;0.22;;;;;;;29.13;31.54;96661.38;5082496;28;20049;-30
2022/05/12 03:36:56;;;;;;;0.43;0.30;;;;;;;29.14;31.81;96665.69;5086372;28;20047;-31
2022/05/12 03:39:21;;;;;;;0.57;0.30;;;;;;;29.14;31.76;96662.22;5081388;28;21065;-29
2022/05/12 03:41:47;;;;;;;0.30;0.30;;;;;;;29.14;31.86;96656.94;5083605;28;20020;-30
2022/05/12 03:46:57;;;;;;;0.30;0.30;;;;;;;29.14;31.60;96664.88;5083919;28;20039;-31
2022/05/12 03:49:22;;;;;;;0.35;0.35;;;;;;;29.14;31.54;96667.50;5085076;28;20031;-29
2022/05/12 03:51:48;;;;;;;0.20;0.20;;;;;;;29.13;31.58;96661.38;5080522;28;20599;-30
2022/05/12 03:54:13;;;;;;;0.43;0.20;;;;;;;29.13;31.71;96666.66;5084768;28;20028;-29
2022/05/12 03:56:38;;;;;;;0.20;0.20;;;;;;;29.13;31.62;96671.94;5082403;28;20047;-29
2022/05/12 03:59:05;;;;;;;0.20;0.20;;;;;;;29.13;31.74;96682.47;5084863;28;20047;-30
2022/05/12 04:01:31;;;;;;;0.20;0.20;;;;;;;29.13;31.45;96676.38;5081875;28;20035;-29
2022/05/12 04:03:56;;;;;;;0.65;0.20;;;;;;;29.13;31.53;96676.38;5085007;28;20069;-30
2022/05/12 04:06:22;;;;;;;0.20;0.20;;;;;;;29.12;31.55;96691.34;5083085;28;20035;-29
2022/05/12 04:08:48;;;;;;;0.10;0.10;;;;;;;29.12;31.65;96691.34;5084422;28;20023;-28
2022/05/12 04:11:14;;;;;;;0.20;0.20;;;;;;;29.13;31.74;96697.50;5087380;28;20040;-30
2022/05/12 04:13:41;;;;;;;0.15;0.15;;;;;;;29.12;31.64;96696.63;5084572;28;20077;-31
2022/05/12 04:16:06;;;;;;;0.20;0.20;;;;;;;29.11;31.64;96692.31;5081228;28;20060;-31
2022/05/12 04:18:32;;;;;;;0.20;0.20;;;;;;;29.12;31.65;96707.19;5081646;28;20829;-29
2022/05/12 04:20:57;;;;;;;0.38;0.30;;;;;;;29.13;31.58;96708.88;5084180;28;20036;-29
2022/05/12 04:23:22;;;;;;;0.20;0.20;;;;;;;29.12;31.58;96717.75;5084941;28;20027;-30
2022/05/12 04:25:48;;;;;;;0.15;0.15;;;;;;;29.12;31.62;96717.75;5082485;28;20093;-29
2022/05/12 04:28:13;;;;;;;0.17;0.17;;;;;;;29.13;31.65;96718.59;5081560;28;20105;-30
2022/05/12 04:30:39;;;;;;;0.30;0.10;;;;;;;29.12;31.59;96717.75;5082767;28;20023;-33
2022/05/12 04:35:49;;;;;;;0.30;0.30;;;;;;;29.13;31.55;96734.44;5082610;28;20347;-31
2022/05/12 04:38:15;;;;;;;0.38;0.30;;;;;;;29.14;31.61;96730.84;5083781;28;20024;-32
2022/05/12 04:40:40;;;;;;;0.25;0.20;;;;;;;29.12;31.58;96736.22;5083890;28;20471;-32
2022/05/12 04:43:05;;;;;;;0.45;0.20;;;;;;;29.13;31.53;96739.69;5080962;28;20064;-32
2022/05/12 04:45:33;;;;;;;0.20;0.20;;;;;;;29.13;31.66;96742.34;5084055;28;20024;-38
2022/05/12 04:47:58;;;;;;;0.30;0.30;;;;;;;29.13;31.51;96739.69;5086347;28;20036;-31
2022/05/12 04:50:29;;;;;;;0.20;0.20;;;;;;;29.13;31.72;96744.97;5080740;28;20045;-30
2022/05/12 04:52:54;;;;;;;0.20;0.20;;;;;;;29.12;31.67;96744.13;5082126;28;20024;-32
2022/05/12 04:55:20;;;;;;;0.25;0.25;;;;;;;29.13;31.64;96751.09;5081568;28;20078;-30
2022/05/12 04:57:47;;;;;;;0.20;0.20;;;;;;;29.14;31.71;96754.56;5083034;28;20284;-31
2022/05/12 05:00:18;;;;;;;0.10;0.10;;;;;;;29.13;31.73;96755.53;5082676;28;20916;-30
2022/05/12 05:02:43;;;;;;;0.73;0.20;;;;;;;29.14;31.85;96758.03;5083110;28;20074;-32
2022/05/12 05:05:09;;;;;;;0.20;0.20;;;;;;;29.13;31.66;96761.63;5080382;28;20859;-32
2022/05/12 05:07:35;;;;;;;0.30;0.30;;;;;;;29.14;31.65;96768.59;5084144;28;20882;-30
2022/05/12 05:10:00;;;;;;;0.22;0.22;;;;;;;29.14;31.70;96773.88;5081373;28;20042;-30
2022/05/12 05:12:26;;;;;;;0.30;0.30;;;;;;;29.15;31.57;96772.09;5085263;28;20028;-32
2022/05/12 05:14:52;;;;;;;0.28;0.20;;;;;;;29.15;31.70;96769.44;5082724;28;20085;-45
2022/05/12 05:17:17;;;;;;;0.10;0.10;;;;;;;29.15;31.51;96775.59;5081955;28;20958;-31
2022/05/12 05:19:43;;;;;;;0.10;0.10;;;;;;;29.15;31.64;96775.59;5082295;28;20032;-32
2022/05/12 05:22:08;;;;;;;0.20;0.20;;;;;;;29.15;31.87;96772.94;5081709;28;20032;-30
2022/05/12 05:24:34;;;;;;;0.20;0.20;;;;;;;29.15;31.76;96783.50;5083892;28;20032;-30
2022/05/12 05:27:00;;;;;;;0.20;0.20;;;;;;;29.16;31.76;96793.09;5083128;28;20478;-30
2022/05/12 05:29:25;;;;;;;0.20;0.20;;;;;;;29.16;31.82;96797.53;5080845;28;20028;-31
2022/05/12 05:31:50;;;;;;;0.20;0.10;;;;;;;29.17;31.72;96807.97;5077901;28;20088;-31
2022/05/12 05:34:16;;;;;;;0.20;0.10;;;;;;;29.17;31.69;96809.75;5082243;28;20409;-30
2022/05/12 05:36:44;;;;;;;0.73;0.20;;;;;;;29.17;31.58;96821.19;5082630;28;20035;-31
2022/05/12 05:39:21;;;;;;;0.13;0.10;;;;;;;29.17;31.66;96823.81;5079707;28;20115;-29
2022/05/12 05:41:46;;;;;;;0.20;0.20;;;;;;;29.17;31.79;96829.09;5084848;28;20110;-31
2022/05/12 05:44:12;;;;;;;0.20;0.20;;;;;;;29.17;31.83;96834.38;5085586;28;20019;-32
2022/05/12 05:46:37;;;;;;;0.50;0.20;;;;;;;29.16;31.55;96830.03;5083427;28;20077;-31
2022/05/12 05:49:02;;;;;;;0.15;0.15;;;;;;;29.17;31.63;96837.00;5085500;28;20028;-30
2022/05/12 05:54:14;;;;;;;0.10;0.10;;;;;;;29.17;31.68;96833.50;5087067;28;20112;-29
2022/05/12 05:56:43;;;;;;;0.68;0.30;;;;;;;29.16;31.89;96843.25;5083731;28;20027;-30
2022/05/12 05:59:08;;;;;;;0.20;0.20;;;;;;;29.18;31.57;96849.25;5082367;28;23486;-31
2022/05/12 06:01:34;;;;;;;0.30;0.30;;;;;;;29.18;31.91;96838.69;5085572;28;20120;-30
2022/05/12 06:03:59;;;;;;;0.10;0.10;;;;;;;29.18;31.61;96846.59;5086713;28;20247;-31
2022/05/12 06:06:25;;;;;;;0.17;0.17;;;;;;;29.19;31.74;96845.69;5087536;28;20028;-32
2022/05/12 06:08:51;;;;;;;0.43;0.20;;;;;;;29.18;31.71;96843.97;5086255;28;20032;-29
2022/05/12 06:11:16;;;;;;;0.20;0.20;;;;;;;29.18;31.77;96838.69;5085299;28;20027;-32
2022/05/12 06:13:43;;;;;;;0.73;0.20;;;;;;;29.19;31.61;96842.19;5085864;28;20545;-29
2022/05/12 06:16:08;;;;;;;0.22;0.22;;;;;;;29.19;31.83;96853.59;5083807;28;20035;-30
2022/05/12 06:18:36;;;;;;;0.22;0.20;;;;;;;29.20;31.58;96851.78;5083450;28;20114;-32
2022/05/12 06:21:03;;;;;;;0.15;0.15;;;;;;;29.19;31.59;96850.97;5086411;28;20052;-28
2022/05/12 06:23:29;;;;;;;0.20;0.20;;;;;;;29.22;31.78;96865.75;5068684;28;20031;-31
2022/05/12 06:25:55;;;;;;;0.10;0.10;;;;;;;29.21;31.50;96870.16;5086251;28;20046;-30
2022/05/12 06:28:20;;;;;;;0.10;0.10;;;;;;;29.21;31.73;96864.03;5086524;28;20020;-28
2022/05/12 06:30:45;;;;;;;0.20;0.20;;;;;;;29.21;32.12;96875.44;5084525;28;20032;-30
2022/05/12 06:33:17;;;;;;;0.25;0.20;;;;;;;29.23;31.83;96866.56;5087772;28;20097;-32
2022/05/12 06:35:43;;;;;;;0.20;0.20;;;;;;;29.23;31.60;96871.84;5085066;28;20448;-34
2022/05/12 06:38:09;;;;;;;0.43;0.20;;;;;;;29.24;31.87;96873.53;5076586;28;20091;-29
2022/05/12 06:40:34;;;;;;;0.20;0.20;;;;;;;29.24;31.67;96878.81;5085157;28;20027;-30
2022/05/12 06:43:05;;;;;;;0.28;0.20;;;;;;;29.24;31.74;96879.66;5085932;28;20028;-34
2022/05/12 06:45:31;;;;;;;0.30;0.30;;;;;;;29.25;31.66;96885.81;5084741;28;20087;-32
2022/05/12 06:47:56;;;;;;;0.20;0.20;;;;;;;29.25;31.75;96885.81;5084903;28;20421;-30
2022/05/12 06:50:28;;;;;;;0.20;0.20;;;;;;;29.25;31.53;96888.44;5082080;28;20024;-30
2022/05/12 06:52:53;;;;;;;0.10;0.10;;;;;;;29.25;31.57;96883.16;5086786;28;20649;-33
2022/05/12 06:55:19;;;;;;;0.20;0.20;;;;;;;29.26;31.69;96887.50;5082151;28;20032;-29
2022/05/12 06:57:45;;;;;;;0.30;0.30;;;;;;;29.26;31.66;96887.50;5083224;28;20127;-31
2022/05/12 07:00:13;;;;;;;0.52;0.47;;;;;;;29.26;31.64;96892.78;5085144;28;20028;-31
2022/05/12 07:02:39;;;;;;;0.63;0.40;;;;;;;29.26;31.46;96888.34;5083980;28;20504;-31
2022/05/12 07:05:05;;;;;;;0.20;0.13;;;;;;;29.26;31.84;96898.03;5081206;28;20019;-32
2022/05/12 07:07:30;;;;;;;0.20;0.20;;;;;;;29.27;31.75;96891.81;5082762;28;20663;-29
2022/05/12 07:09:56;;;;;;;0.20;0.20;;;;;;;29.28;31.83;96896.13;5081914;28;20028;-30
2022/05/12 07:12:23;;;;;;;0.20;0.10;;;;;;;29.27;31.55;96897.09;5084366;28;20039;-29
2022/05/12 07:14:49;;;;;;;0.38;0.20;;;;;;;29.27;31.92;96900.59;5085192;28;20031;-30
2022/05/12 07:17:21;;;;;;;0.28;0.20;;;;;;;29.28;31.83;96901.41;5084662;28;20090;-30
2022/05/12 07:19:47;;;;;;;0.20;0.20;;;;;;;29.27;31.86;96902.38;5087159;28;20058;-30
2022/05/12 07:27:40;;;;;;;0.20;0.20;;;;;;;29.29;31.76;96918.97;5083900;28;20036;-29
2022/05/12 07:30:06;;;;;;;0.20;0.20;;;;;;;29.29;31.85;96924.25;5083888;28;20051;-30
2022/05/12 07:32:31;;;;;;;0.50;0.40;;;;;;;29.28;31.57;96917.25;5084248;28;20409;-30
2022/05/12 07:34:57;;;;;;;0.20;0.20;;;;;;;29.28;31.72;96923.38;5083138;28;20028;-29
2022/05/12 07:37:22;;;;;;;0.20;0.20;;;;;;;29.28;31.75;96923.38;5080209;28;20027;-30
2022/05/12 07:39:48;;;;;;;0.90;0.15;;;;;;;29.29;31.83;96918.97;5081730;28;20028;-31
2022/05/12 07:42:13;;;;;;;0.10;0.10;;;;;;;29.28;31.78;96920.75;5080138;28;20481;-31
2022/05/12 07:44:40;;;;;;;0.20;0.20;;;;;;;29.29;31.71;96924.25;5082381;28;20063;-29
2022/05/12 07:47:09;;;;;;;0.20;0.20;;;;;;;29.30;31.61;96925.94;5084110;28;20118;-30
2022/05/12 07:49:36;;;;;;;0.32;0.30;;;;;;;29.29;31.86;96926.88;5085149;28;20577;-30
2022/05/12 07:52:03;;;;;;;0.30;0.20;;;;;;;29.29;31.65;96924.25;5078462;28;20036;-31
2022/05/12 07:54:29;;;;;;;0.40;0.20;;;;;;;29.29;31.70;96914.50;5082347;28;20051;-29
2022/05/12 07:56:54;;;;;;;0.20;0.20;;;;;;;29.30;32.04;96928.56;5081892;28;20061;-30
2022/05/12 07:59:19;;;;;;;0.20;0.20;;;;;;;29.30;31.73;96925.94;5081910;28;20035;-28
2022/05/12 08:01:45;;;;;;;0.20;0.20;;;;;;;29.31;31.58;96922.34;5081124;28;20035;-34
2022/05/12 08:04:12;;;;;;;0.30;0.20;;;;;;;29.31;31.92;96917.06;5084105;28;20015;-33
2022/05/12 08:06:39;;;;;;;0.20;0.20;;;;;;;29.32;31.64;96916.09;5079958;28;20031;-30
2022/05/12 08:09:05;;;;;;;0.20;0.20;;;;;;;29.31;31.54;96917.06;5081300;28;20075;-31
2022/05/12 08:11:31;;;;;;;0.20;0.20;;;;;;;29.32;31.91;96921.38;5082852;28;20054;-30
2022/05/12 08:13:57;;;;;;;0.22;0.22;;;;;;;29.32;31.66;96929.31;5083803;28;20043;-31
2022/05/12 08:16:22;;;;;;;0.10;0.10;;;;;;;29.32;31.90;96931.94;5082039;28;20112;-30
2022/05/12 08:18:49;;;;;;;0.35;0.30;;;;;;;29.32;31.60;96924.88;5080157;28;20961;-31
2022/05/12 08:21:15;;;;;;;0.40;0.20;;;;;;;29.32;32.07;96938.09;5084068;28;20071;-31
2022/05/12 08:23:41;;;;;;;0.30;0.30;;;;;;;29.33;31.90;96936.31;5082530;28;20024;-30
2022/05/12 08:26:07;;;;;;;0.20;0.20;;;;;;;29.33;31.86;96931.03;5081639;28;20039;-30
2022/05/12 08:28:32;;;;;;;0.57;0.40;;;;;;;29.33;31.81;96936.31;5081919;28;20032;-34
2022/05/12 08:30:58;;;;;;;0.20;0.10;;;;;;;29.34;31.84;96937.97;5083609;28;20047;-32
2022/05/12 08:33:23;;;;;;;0.38;0.30;;;;;;;29.34;31.69;96937.97;5082753;28;20801;-36
2022/05/12 08:35:49;;;;;;;0.17;0.17;;;;;;;29.33;31.92;96939.78;5083474;28;20049;-30
2022/05/12 08:38:14;;;;;;;0.20;0.20;;;;;;;29.34;31.80;96943.25;5080764;28;20117;-29
2022/05/12 08:40:58;;;;;;;0.10;0.10;;;;;;;29.34;31.61;96948.53;5084544;28;20548;-30
2022/05/12 08:43:56;;;;;;;0.28;0.28;;;;;;;29.35;31.83;96944.94;5083250;28;20101;-31
2022/05/12 08:46:26;;;;;;;0.22;0.22;;;;;;;29.36;31.99;96951.09;5081255;28;20044;-31
2022/05/12 08:48:59;;;;;;;0.50;0.20;;;;;;;29.35;31.70;96952.88;5082409;28;20465;-31
2022/05/12 08:51:24;;;;;;;0.20;0.20;;;;;;;29.34;31.76;96956.47;5062551;28;20031;-31
2022/05/12 08:53:55;;;;;;;0.73;0.30;;;;;;;29.36;31.66;96954.56;5066436;28;20089;-35
2022/05/12 08:56:21;;;;;;;0.20;0.20;;;;;;;29.36;31.78;96949.28;5065093;28;20031;-30
2022/05/12 08:58:47;;;;;;;0.20;0.20;;;;;;;29.36;31.78;96946.63;5082455;28;20444;-31
2022/05/12 09:01:21;;;;;;;0.30;0.30;;;;;;;29.36;31.31;96943.16;5082560;28;20035;-30
2022/05/12 09:04:14;;;;;;;0.22;0.22;;;;;;;29.37;31.94;96953.59;5080979;28;20028;-29
2022/05/12 09:06:49;;;;;;;0.35;0.20;;;;;;;29.35;31.68;96955.50;5079998;28;20021;-31
2022/05/12 09:09:55;;;;;;;0.80;0.30;;;;;;;29.37;31.58;96948.31;5080599;28;20533;-29
2022/05/12 09:12:33;;;;;;;0.47;0.20;;;;;;;29.37;31.89;96950.97;5078437;28;20043;-30
2022/05/12 09:15:00;;;;;;;0.35;0.30;;;;;;;29.37;31.63;96943.03;5080460;28;20028;-35
2022/05/12 09:17:37;;;;;;;1.10;0.20;;;;;;;29.37;31.84;96947.50;5080913;28;20484;-29
2022/05/12 09:20:05;;;;;;;0.20;0.20;;;;;;;29.37;31.96;96948.31;5082955;28;20090;-30
2022/05/12 09:22:31;;;;;;;0.22;0.22;;;;;;;29.37;31.67;96952.78;5080836;28;20059;-30
2022/05/12 09:24:56;;;;;;;0.38;0.28;;;;;;;29.36;32.15;96951.91;5080321;28;20039;-31
2022/05/12 09:27:32;;;;;;;0.60;0.20;;;;;;;29.37;31.75;96944.84;5081151;28;20032;-29
2022/05/12 09:29:57;;;;;;;0.20;0.20;;;;;;;29.38;31.91;96949.19;5077046;28;20039;-31
2022/05/12 09:32:30;;;;;;;0.10;0.10;;;;;;;29.38;31.92;96944.75;5080072;28;20079;-31
2022/05/12 09:35:05;;;;;;;0.30;0.30;;;;;;;29.39;31.65;96948.22;5083086;28;20032;-30
2022/05/12 09:37:32;;;;;;;0.85;0.40;;;;;;;29.38;31.76;96944.75;5082596;28;20028;-31
2022/05/12 09:40:12;;;;;;;0.30;0.30;;;;;;;29.39;31.74;96946.44;5082427;28;20044;-30
2022/05/12 09:42:40;;;;;;;0.20;0.20;;;;;;;29.40;31.88;96947.31;5080770;28;20028;-31
2022/05/12 09:45:20;;;;;;;0.30;0.30;;;;;;;29.39;31.72;96935.88;5081278;28;20035;-32
2022/05/12 09:47:46;;;;;;;0.57;0.30;;;;;;;29.41;32.11;96941.88;5082280;28;20031;-30
2022/05/12 09:50:21;;;;;;;0.52;0.30;;;;;;;29.41;31.63;96939.25;5082637;28;20072;-37
2022/05/12 09:52:58;;;;;;;0.30;0.30;;;;;;;29.41;31.92;96931.34;5084217;28;20039;-29
2022/05/12 09:55:28;;;;;;;0.30;0.30;;;;;;;29.42;31.66;96929.56;5079820;28;20024;-30
2022/05/12 09:57:55;;;;;;;0.45;0.45;;;;;;;29.42;31.95;96933.06;5079776;28;20135;-29
2022/05/12 10:01:00;;;;;;;0.82;0.22;;;;;;;29.42;31.63;96930.41;5083733;28;20119;-30
2022/05/12 10:09:00;;;;;;;0.38;0.38;;;;;;;29.43;31.78;96913.63;5079882;28;20043;-30
2022/05/12 10:11:26;;;;;;;0.30;0.30;;;;;;;29.43;31.58;96910.13;5080018;28;20121;-29
2022/05/12 10:13:54;;;;;;;0.50;0.40;;;;;;;29.44;31.54;96914.44;5079747;28;20829;-28
2022/05/12 10:16:30;;;;;;;0.57;0.40;;;;;;;29.44;31.96;96912.66;5074250;28;20052;-30
2022/05/12 10:18:58;;;;;;;0.30;0.30;;;;;;;29.44;31.75;96904.75;5081593;28;20032;-29
2022/05/12 10:21:45;;;;;;;0.20;0.20;;;;;;;29.44;31.95;96906.53;5078362;28;20028;-30
2022/05/12 10:24:18;;;;;;;0.30;0.30;;;;;;;29.45;31.82;96901.16;5079041;28;21261;-32
2022/05/12 10:26:54;;;;;;;0.20;0.20;;;;;;;29.46;31.81;96900.22;5081044;28;20035;-30
2022/05/12 10:29:38;;;;;;;0.43;0.38;;;;;;;29.45;31.98;96902.97;5069088;28;20035;-31
2022/05/12 10:32:32;;;;;;;0.20;0.20;;;;;;;29.45;31.72;96887.94;5085084;28;20031;-30
2022/05/12 10:35:22;;;;;;;1.15;0.40;;;;;;;29.45;31.79;96882.66;5085350;28;20090;-30
2022/05/12 10:37:59;;;;;;;0.30;0.20;;;;;;;29.46;32.08;96892.31;5054519;28;20791;-31
2022/05/12 10:40:38;;;;;;;0.20;0.20;;;;;;;29.46;31.90;96894.94;5082952;28;20051;-31
2022/05/12 10:43:38;;;;;;;0.28;0.20;;;;;;;29.46;31.83;96884.38;5086652;28;20036;-31
2022/05/12 10:46:12;;;;;;;0.95;0.30;;;;;;;29.47;31.90;96891.34;5082584;28;20035;-33
2022/05/12 10:48:52;;;;;;;0.20;0.20;;;;;;;29.47;31.98;96898.41;5082576;28;20028;-30
2022/05/12 10:51:18;;;;;;;0.20;0.20;;;;;;;29.48;31.90;96886.91;5082603;28;20020;-33
2022/05/12 10:54:21;;;;;;;0.30;0.30;;;;;;;29.47;31.93;96875.50;5083780;28;20069;-29
2022/05/12 10:57:13;;;;;;;0.52;0.40;;;;;;;29.47;32.08;96878.16;5080891;28;20209;-36
2022/05/12 10:59:45;;;;;;;0.45;0.30;;;;;;;29.47;31.96;96878.16;5084468;28;20762;-34
2022/05/12 11:02:19;;;;;;;0.40;0.40;;;;;;;29.47;31.92;96878.16;5082668;28;20056;-31
2022/05/12 11:04:48;;;;;;;0.30;0.30;;;;;;;29.48;31.68;96866.63;5081361;28;20032;-30
2022/05/12 11:07:34;;;;;;;0.20;0.20;;;;;;;29.48;31.85;96869.28;5069211;28;20027;-31
2022/05/12 11:10:35;;;;;;;0.45;0.45;;;;;;;29.48;31.85;96866.63;5084787;28;20039;-30
2022/05/12 11:13:12;;;;;;;0.30;0.22;;;;;;;29.50;31.91;96857.75;5074588;28;20038;-30
2022/05/12 11:15:43;;;;;;;0.52;0.40;;;;;;;29.48;32.07;96850.78;5083278;28;20112;-30
2022/05/12 11:18:11;;;;;;;;;;;;;;;29.48;31.95;96856.06;5083162;28;20044;-30
2022/05/12 11:20:40;;;;;;;0.80;0.30;;;;;;;29.48;32.11;96845.50;5083967;28;19912;-31
2022/05/12 11:23:27;;;;;;;0.30;0.30;;;;;;;29.48;31.90;96857.84;5073838;28;20382;-34
2022/05/12 11:26:11;;;;;;;0.43;0.30;;;;;;;29.48;31.96;96856.06;5082655;28;20122;-32
2022/05/12 11:31:47;;;;;;;0.38;0.22;;;;;;;29.47;31.95;96849.09;5085322;28;20054;-29
2022/05/12 11:34:17;;;;;;;0.35;0.35;;;;;;;29.47;31.91;96851.75;5067948;28;20442;-32
2022/05/12 11:36:47;;;;;;;0.40;0.40;;;;;;;29.47;32.05;96849.09;5082503;28;20023;-30
2022/05/12 11:39:31;;;;;;;0.32;0.32;;;;;;;29.48;31.75;96844.66;5079826;28;20020;-31
2022/05/12 11:42:14;;;;;;;0.95;0.22;;;;;;;29.47;31.96;96838.53;5065222;28;20904;-30
2022/05/12 11:44:45;;;;;;;1.00;0.32;;;;;;;29.50;31.93;96844.56;5083932;28;20028;-30
2022/05/12 11:47:40;;;;;;;0.40;0.40;;;;;;;29.49;32.11;96843.72;5084880;28;20123;-32
2022/05/12 11:50:15;;;;;;;0.35;0.35;;;;;;;29.50;31.93;96844.56;5082533;28;20035;-36
2022/05/12 11:52:50;;;;;;;0.30;0.30;;;;;;;29.50;32.07;96841.91;5082883;28;20028;-30
2022/05/12 11:55:20;;;;;;;0.40;0.40;;;;;;;29.51;32.04;96843.59;5079438;28;20105;-33
2022/05/12 11:57:55;;;;;;;0.47;0.45;;;;;;;29.50;32.01;96852.47;5083137;28;20028;-36
2022/05/12 12:00:35;;;;;;;0.30;0.30;;;;;;;29.51;31.83;96843.59;5081261;28;20039;-31
2022/05/12 12:03:19;;;;;;;0.50;0.40;;;;;;;29.50;31.81;96836.63;5081791;28;20032;-31
2022/05/12 12:05:47;;;;;;;0.30;0.30;;;;;;;29.52;31.93;96840.06;5080827;28;20126;-31